Prospect, Connecticut
Current Conditions -  °F | °C
As of 3:53 AM on Thursday 27 Nov 2014 (Local Time) from KMMK Reporting Station
Overcast Overcast  
Wind Chill: 27°   Ceiling: 2500
Heat Index: 34°   Visibility: 10mi
Dew Point: 29°   Wind: 9mph
Humidity: 82%   Direction: 320°NW
Pressure: 29.85"   Gusts: NA
Location:  41.5°N, 72.98°W
Report Text: KMMK 270853Z AUTO 32008KT 10SM OVC025 01/M02 A2985 RMK AO2 SLP110 60000 T00111017 51023 TSNO
Loading
Personal Weather Stations






























Interactive Weather Map New forecast layout! Learn more

10-Day Weather Forecast

Advertisements
Track Severe Weather on mobile